Terminal Aerodrome Forecast
Issued by NWS

Home | Current Version | Previous Version | Text Only | Print | Product List | Glossary On
Versions: 1 2 3 4 5 6 7 8 9 10 11 12
000
FTUS45 KABQ 211700
TAFROW
TAF
KROW 211734Z 2118/2218 19007KT P6SM SCT250
     FM212100 29012G20KT P6SM SCT250
     FM220100 28008KT P6SM BKN200
     FM221200 31008KT P6SM SCT120 BKN200
     FM221700 31015G25KT P6SM SCT120 BKN200=

USA.gov is the U.S. government's official web portal to all federal, state and local government web resources and services.